Time;durP1;ratioP1;P1;durP2;ratioP2;P2;SDS_P1;SDS_P2;PMS_P1;PMS_P2;Temp;Humidity;BMP_temperature;BMP_pressure;BME280_temperature;BME280_humidity;BME280_pressure;Samples;Min_cycle;Max_cycle;Signal;HPM_P1;HPM_P2
2023/09/19 00:00:41;;;;;;;10.13;2.30;;;;;;;14.51;100.00;100373.47;4910939;29;20491;-73
2023/09/19 00:03:08;;;;;;;8.70;2.17;;;;;;;14.50;100.00;100376.13;4918105;29;20067;-73
2023/09/19 00:05:44;;;;;;;7.50;2.60;;;;;;;14.47;100.00;100377.09;4936116;29;20043;-73
2023/09/19 00:08:15;;;;;;;7.00;2.28;;;;;;;14.45;100.00;100380.69;4936957;28;20060;-73
2023/09/19 00:10:43;;;;;;;9.35;2.05;;;;;;;14.43;100.00;100386.00;4872435;29;20391;-73
2023/09/19 00:13:14;;;;;;;9.57;1.98;;;;;;;14.38;100.00;100394.03;4922173;29;20059;-73
2023/09/19 00:15:50;;;;;;;9.80;1.90;;;;;;;14.35;100.00;100398.56;4893834;29;20048;-73
2023/09/19 00:18:21;;;;;;;11.90;2.22;;;;;;;14.30;100.00;100397.75;4926723;29;20036;-73
2023/09/19 00:20:48;;;;;;;13.38;2.20;;;;;;;14.25;100.00;100400.47;4925076;29;20056;-73
2023/09/19 00:23:19;;;;;;;7.55;2.55;;;;;;;14.21;100.00;100407.63;4925171;29;20062;-73
2023/09/19 00:25:47;;;;;;;9.23;2.30;;;;;;;14.17;100.00;100392.66;4876463;29;20051;-73
2023/09/19 00:28:15;;;;;;;8.05;2.05;;;;;;;14.14;100.00;100406.00;4905458;29;20048;-73
2023/09/19 00:30:43;;;;;;;6.40;2.00;;;;;;;14.11;100.00;100405.19;4918748;29;20062;-74
2023/09/19 00:33:16;;;;;;;9.80;2.17;;;;;;;14.11;100.00;100410.47;4925348;29;20055;-73
2023/09/19 00:35:51;;;;;;;7.80;1.70;;;;;;;14.08;100.00;100406.09;4919540;29;20425;-71
2023/09/19 00:38:22;;;;;;;11.35;2.00;;;;;;;14.02;100.00;100412.38;4936628;28;20047;-73
2023/09/19 00:40:53;;;;;;;9.20;2.17;;;;;;;13.99;100.00;100407.16;4874121;29;20059;-73
2023/09/19 00:43:23;;;;;;;8.13;2.33;;;;;;;13.99;100.00;100416.88;4935537;29;20052;-73
2023/09/19 00:45:54;;;;;;;9.77;2.17;;;;;;;14.02;100.00;100420.31;4909111;29;20530;-73
2023/09/19 00:48:22;;;;;;;15.32;2.53;;;;;;;14.03;100.00;100423.88;4899154;29;20054;-73
2023/09/19 00:50:50;;;;;;;15.40;2.60;;;;;;;14.06;100.00;100422.94;4914598;29;20051;-73
2023/09/19 00:53:22;;;;;;;5.50;1.77;;;;;;;14.08;100.00;100426.41;4915820;29;20062;-73
2023/09/19 00:55:51;;;;;;;8.27;1.92;;;;;;;14.07;100.00;100427.34;4888099;29;20514;-73
2023/09/19 00:58:20;;;;;;;9.80;2.35;;;;;;;14.06;100.00;100429.09;4915633;29;20051;-73
2023/09/19 01:00:53;;;;;;;9.70;1.90;;;;;;;14.03;100.00;100435.31;4931371;29;20060;-73
2023/09/19 01:03:20;;;;;;;8.07;2.17;;;;;;;14.00;100.00;100435.38;4914163;29;20050;-73
2023/09/19 01:05:47;;;;;;;9.25;2.17;;;;;;;13.98;100.00;100445.13;4898373;29;20059;-73
2023/09/19 01:08:15;;;;;;;9.63;1.70;;;;;;;13.98;100.00;100444.25;4916204;29;20509;-73
2023/09/19 01:10:55;;;;;;;7.72;2.03;;;;;;;13.96;100.00;100438.13;4897455;29;20994;-72
2023/09/19 01:13:31;;;;;;;5.10;1.83;;;;;;;13.93;100.00;100452.28;4931959;29;20043;-73
2023/09/19 01:16:05;;;;;;;8.02;2.22;;;;;;;13.90;100.00;100449.69;4947079;29;20414;-73
2023/09/19 01:18:47;;;;;;;9.20;2.88;;;;;;;13.83;100.00;100458.63;4911469;29;20048;-73
2023/09/19 01:21:48;;;;;;;11.13;2.67;;;;;;;13.81;100.00;100460.44;4931132;29;20059;-73
2023/09/19 01:24:50;;;;;;;6.57;2.00;;;;;;;13.78;100.00;100465.75;4914955;29;20499;-73
2023/09/19 01:27:35;;;;;;;11.43;2.00;;;;;;;13.77;100.00;100464.91;4883631;29;20048;-73
2023/09/19 01:30:17;;;;;;;8.63;1.95;;;;;;;13.73;100.00;100462.34;4933287;29;20051;-73
2023/09/19 01:32:46;;;;;;;7.20;2.03;;;;;;;13.68;100.00;100465.03;4944691;29;20059;-73
2023/09/19 01:35:13;;;;;;;11.27;2.60;;;;;;;13.65;100.00;100473.06;4915308;29;20051;-73
2023/09/19 01:37:43;;;;;;;8.80;2.20;;;;;;;13.60;100.00;100465.16;4927887;29;20046;-73
2023/09/19 01:40:17;;;;;;;10.52;2.95;;;;;;;13.56;100.00;100482.00;4915535;29;20051;-73
2023/09/19 01:43:02;;;;;;;6.40;2.03;;;;;;;13.49;100.00;100475.03;4880642;29;20525;-73
2023/09/19 01:45:55;;;;;;;6.55;2.10;;;;;;;13.44;100.00;100482.19;4912915;29;20521;-73
2023/09/19 01:48:38;;;;;;;9.40;2.33;;;;;;;13.38;100.00;100488.44;4913153;29;20051;-73
2023/09/19 01:51:07;;;;;;;7.13;2.05;;;;;;;13.32;100.00;100482.34;4924862;29;20560;-73
2023/09/19 01:53:43;;;;;;;11.80;2.40;;;;;;;13.29;100.00;100477.97;4940257;29;20039;-73
2023/09/19 01:56:19;;;;;;;8.93;1.88;;;;;;;13.28;100.00;100481.47;4925802;29;20287;-73
2023/09/19 01:58:50;;;;;;;9.15;1.88;;;;;;;13.25;100.00;100482.41;4882289;29;20052;-73
2023/09/19 02:01:24;;;;;;;11.43;1.95;;;;;;;13.23;100.00;100481.56;4910707;29;20418;-73
2023/09/19 02:03:53;;;;;;;7.28;2.40;;;;;;;13.21;100.00;100486.00;4905161;29;20423;-73
2023/09/19 02:06:26;;;;;;;6.18;1.60;;;;;;;13.18;100.00;100479.88;4925990;29;20043;-73
2023/09/19 02:08:54;;;;;;;11.35;2.03;;;;;;;13.17;100.00;100481.63;4926546;29;20054;-73
2023/09/19 02:11:21;;;;;;;5.30;1.77;;;;;;;13.16;100.00;100494.88;4929154;29;20051;-73
2023/09/19 02:13:54;;;;;;;5.57;1.60;;;;;;;13.14;100.00;100484.31;4882045;29;20052;-74
2023/09/19 02:16:22;;;;;;;5.88;1.75;;;;;;;13.14;100.00;100494.03;4912106;29;20047;-73
2023/09/19 02:18:50;;;;;;;9.43;2.10;;;;;;;13.12;100.00;100488.75;4894823;29;20055;-74
2023/09/19 02:21:18;;;;;;;10.30;2.67;;;;;;;13.12;100.00;100486.13;4942646;29;20059;-73
2023/09/19 02:23:47;;;;;;;4.95;2.05;;;;;;;13.12;100.00;100486.13;4910470;29;20055;-73
2023/09/19 02:26:14;;;;;;;8.38;2.20;;;;;;;13.10;100.00;100485.25;4926538;29;20051;-73
2023/09/19 02:28:42;;;;;;;9.27;1.80;;;;;;;13.08;100.00;100489.69;4867655;29;20051;-73
2023/09/19 02:31:10;;;;;;;6.72;2.10;;;;;;;13.04;100.00;100491.50;4890882;29;20048;-73
2023/09/19 02:33:38;;;;;;;10.52;2.45;;;;;;;13.00;100.00;100491.56;4928432;29;20051;-73
2023/09/19 02:36:07;;;;;;;9.10;2.00;;;;;;;12.98;100.00;100495.97;4908185;29;20052;-73
2023/09/19 02:38:34;;;;;;;11.25;2.17;;;;;;;12.97;100.00;100484.53;4910937;29;20066;-73
2023/09/19 02:41:03;;;;;;;5.60;1.65;;;;;;;12.96;100.00;100496.00;4907002;29;20495;-73
2023/09/19 02:43:30;;;;;;;8.55;2.97;;;;;;;12.93;100.00;100492.50;4919304;29;20466;-73
2023/09/19 02:45:57;;;;;;;8.65;1.77;;;;;;;12.88;100.00;100501.38;4888087;28;20534;-73
2023/09/19 02:48:25;;;;;;;8.00;2.15;;;;;;;12.85;100.00;100497.91;4946937;29;20047;-73
2023/09/19 02:50:52;;;;;;;8.70;2.78;;;;;;;12.82;100.00;100487.38;4944032;28;20530;-73
2023/09/19 02:53:20;;;;;;;7.13;1.75;;;;;;;12.80;100.00;100500.59;4929043;29;20051;-73
2023/09/19 02:55:48;;;;;;;10.25;2.65;;;;;;;12.77;100.00;100497.97;4913119;29;20052;-73
2023/09/19 02:58:15;;;;;;;9.90;2.50;;;;;;;12.75;100.00;100488.34;4970305;28;20058;-73
2023/09/19 03:00:47;;;;;;;5.95;2.40;;;;;;;12.73;100.00;100493.63;4884100;29;20063;-73
2023/09/19 03:03:18;;;;;;;8.25;2.97;;;;;;;12.73;100.00;100498.91;4960935;28;20059;-73
2023/09/19 03:05:47;;;;;;;12.38;2.28;;;;;;;12.72;100.00;100499.84;4918266;29;20055;-73
2023/09/19 03:08:16;;;;;;;7.80;2.38;;;;;;;12.72;100.00;100498.94;4938265;29;20055;-73
2023/09/19 03:10:47;;;;;;;7.20;1.90;;;;;;;12.67;100.00;100505.16;4929764;29;20051;-73
2023/09/19 03:13:16;;;;;;;6.82;2.25;;;;;;;12.70;100.00;100511.28;4960820;28;20047;-73
2023/09/19 03:15:47;;;;;;;10.30;2.45;;;;;;;12.71;100.00;100510.41;4900832;28;20055;-73
2023/09/19 03:18:17;;;;;;;7.97;2.40;;;;;;;12.71;100.00;100508.63;4958638;28;20063;-73
2023/09/19 03:20:55;;;;;;;12.38;2.67;;;;;;;12.73;100.00;100511.28;4959455;28;20530;-73
2023/09/19 03:23:23;;;;;;;5.43;1.95;;;;;;;12.74;100.00;100521.84;4944965;29;20047;-73
2023/09/19 03:25:52;;;;;;;8.50;2.38;;;;;;;12.76;100.00;100516.50;4928083;29;20050;-73
2023/09/19 03:28:21;;;;;;;7.75;2.00;;;;;;;12.78;100.00;100515.63;4929681;29;20054;-73
2023/09/19 03:31:08;;;;;;;10.40;2.42;;;;;;;12.79;100.00;100512.06;4897588;28;20443;-73
2023/09/19 03:33:37;;;;;;;9.18;2.20;;;;;;;12.81;100.00;100510.28;4950272;28;20050;-73
2023/09/19 03:36:05;;;;;;;8.23;2.20;;;;;;;12.83;100.00;100507.63;4958239;28;20055;-73
2023/09/19 03:38:34;;;;;;;11.73;2.15;;;;;;;12.83;100.00;100519.06;4945961;29;20043;-73
2023/09/19 03:41:02;;;;;;;8.02;1.95;;;;;;;12.84;100.00;100520.81;4926305;29;20051;-73
2023/09/19 03:43:32;;;;;;;9.77;2.20;;;;;;;12.85;100.00;100524.34;4945133;29;20058;-73
2023/09/19 03:46:04;;;;;;;10.43;2.45;;;;;;;12.83;100.00;100521.72;4867814;29;20055;-73
2023/09/19 03:48:33;;;;;;;6.88;2.00;;;;;;;12.84;100.00;100518.19;4928441;29;20402;-73
2023/09/19 03:51:03;;;;;;;8.30;2.88;;;;;;;12.84;100.00;100518.19;4926402;29;20051;-73
2023/09/19 03:53:30;;;;;;;7.60;1.67;;;;;;;12.83;100.00;100519.06;4899722;29;20088;-73
2023/09/19 03:55:59;;;;;;;6.50;2.60;;;;;;;12.82;100.00;100505.88;4910703;29;20039;-73
2023/09/19 03:58:29;;;;;;;11.77;2.65;;;;;;;12.81;100.00;100517.34;4929716;29;20059;-73
2023/09/19 04:00:58;;;;;;;4.28;1.92;;;;;;;12.81;100.00;100519.97;4849115;29;20066;-73
2023/09/19 04:03:34;;;;;;;8.40;2.10;;;;;;;12.77;100.00;100521.78;4942480;28;20062;-73
2023/09/19 04:06:02;;;;;;;6.93;1.80;;;;;;;12.76;100.00;100529.72;4921027;29;21087;-73
2023/09/19 04:08:30;;;;;;;6.13;1.80;;;;;;;12.73;100.00;100527.13;4928417;29;20066;-73
2023/09/19 04:10:57;;;;;;;6.13;2.53;;;;;;;12.68;100.00;100528.06;4955984;28;20051;-73
2023/09/19 04:13:25;;;;;;;11.93;2.67;;;;;;;12.67;100.00;100526.28;4926648;29;20125;-73
2023/09/19 04:15:53;;;;;;;7.43;2.13;;;;;;;12.68;100.00;100524.53;4906206;29;20039;-73
2023/09/19 04:18:22;;;;;;;6.18;2.13;;;;;;;12.66;100.00;100528.94;4939310;29;20437;-73
2023/09/19 04:20:50;;;;;;;8.90;2.45;;;;;;;12.65;100.00;100532.50;4924560;29;20494;-73
2023/09/19 04:23:19;;;;;;;9.32;2.08;;;;;;;12.66;100.00;100540.44;4902540;29;20056;-73
2023/09/19 04:25:48;;;;;;;13.55;2.25;;;;;;;12.65;100.00;100553.66;4916874;29;20071;-73
2023/09/19 04:28:15;;;;;;;12.38;2.60;;;;;;;12.65;100.00;100541.31;4923684;28;20699;-73
2023/09/19 04:30:43;;;;;;;11.30;2.70;;;;;;;12.64;100.00;100536.88;4913657;28;20059;-73
2023/09/19 04:33:11;;;;;;;9.43;2.25;;;;;;;12.65;100.00;100529.88;4911636;28;20056;-73
2023/09/19 04:35:39;;;;;;;6.55;2.15;;;;;;;12.66;100.00;100558.94;4933968;29;20051;-72
2023/09/19 04:38:06;;;;;;;11.30;2.42;;;;;;;12.69;100.00;100552.72;4945562;28;20043;-72
2023/09/19 04:40:34;;;;;;;7.88;2.60;;;;;;;12.72;100.00;100550.06;4941360;28;20074;-72
2023/09/19 04:43:02;;;;;;;8.95;2.30;;;;;;;12.75;100.00;100547.38;4930703;28;20050;-72
2023/09/19 04:45:30;;;;;;;3.53;1.92;;;;;;;12.79;100.00;100545.56;4918086;28;20062;-73
2023/09/19 04:47:57;;;;;;;6.63;1.80;;;;;;;12.80;100.00;100548.19;4879437;29;20039;-72
2023/09/19 04:50:27;;;;;;;7.38;1.67;;;;;;;12.81;100.00;100549.94;4911939;29;20055;-72
2023/09/19 04:52:55;;;;;;;;;;;;;;;12.82;100.00;100551.69;4945497;28;20067;-72
2023/09/19 04:55:22;;;;;;;10.45;2.15;;;;;;;12.83;100.00;100549.94;4963210;28;19925;-73
2023/09/19 04:57:50;;;;;;;8.07;1.98;;;;;;;12.84;100.00;100549.91;4912666;29;20052;-73
2023/09/19 05:00:24;;;;;;;6.22;1.55;;;;;;;12.84;100.00;100560.50;4911467;29;20499;-72
2023/09/19 05:02:52;;;;;;;8.57;1.80;;;;;;;12.83;100.00;100558.72;4892657;28;20055;-73
2023/09/19 05:05:20;;;;;;;7.18;1.73;;;;;;;12.83;100.00;100560.50;4929760;28;20421;-74
2023/09/19 05:07:47;;;;;;;7.57;1.83;;;;;;;12.81;100.00;100555.22;4924849;29;20050;-73
2023/09/19 05:10:15;;;;;;;5.45;2.13;;;;;;;12.81;100.00;100559.66;4868418;28;20267;-73
2023/09/19 05:12:45;;;;;;;6.50;1.77;;;;;;;12.81;100.00;100560.50;4948701;28;20051;-74
2023/09/19 05:15:19;;;;;;;8.27;2.30;;;;;;;12.83;100.00;100565.78;4896150;29;20089;-73
2023/09/19 05:17:54;;;;;;;5.30;1.70;;;;;;;12.82;100.00;100566.69;4891968;28;20043;-73
2023/09/19 05:20:29;;;;;;;13.95;2.22;;;;;;;12.81;100.00;100568.44;4935052;29;20035;-74
2023/09/19 05:23:07;;;;;;;8.27;2.05;;;;;;;12.83;100.00;100573.72;4920145;28;20098;-73
2023/09/19 05:25:39;;;;;;;6.63;1.70;;;;;;;12.84;100.00;100571.06;4917672;29;20517;-74
2023/09/19 05:28:08;;;;;;;5.63;1.65;;;;;;;12.85;100.00;100572.84;4927775;29;20047;-74
2023/09/19 05:30:36;;;;;;;6.05;1.60;;;;;;;12.86;100.00;100571.06;4925641;29;20055;-74
2023/09/19 05:33:05;;;;;;;8.18;2.30;;;;;;;12.89;100.00;100568.38;4886084;28;20055;-73
2023/09/19 05:35:32;;;;;;;6.22;1.63;;;;;;;12.90;100.00;100569.25;4962097;28;20047;-73
2023/09/19 05:38:00;;;;;;;10.10;2.05;;;;;;;12.90;100.00;100580.72;4908072;29;20438;-73
2023/09/19 05:40:27;;;;;;;10.07;2.13;;;;;;;12.92;100.00;100578.91;4919760;29;20060;-73
2023/09/19 05:42:54;;;;;;;7.55;2.15;;;;;;;12.93;100.00;100569.22;4927647;29;20054;-73
2023/09/19 05:45:23;;;;;;;9.18;2.42;;;;;;;12.95;100.00;100575.34;4930151;28;20115;-73
2023/09/19 05:47:55;;;;;;;5.13;1.50;;;;;;;12.97;100.00;100566.53;4930628;28;20055;-73
2023/09/19 05:50:24;;;;;;;6.72;1.88;;;;;;;13.00;100.00;100576.19;4910702;28;20063;-73
2023/09/19 05:52:52;;;;;;;3.97;1.85;;;;;;;13.01;100.00;100570.03;4899355;29;20533;-73
2023/09/19 05:55:20;;;;;;;6.40;1.55;;;;;;;13.01;100.00;100568.25;4936623;28;20039;-73
2023/09/19 05:57:52;;;;;;;3.20;1.92;;;;;;;13.04;100.00;100572.59;4902250;29;20056;-73
2023/09/19 06:00:22;;;;;;;4.35;1.77;;;;;;;13.06;100.00;100570.81;4922886;28;20074;-73
2023/09/19 06:02:57;;;;;;;4.95;1.63;;;;;;;13.09;100.00;100559.34;4951403;28;20054;-73
2023/09/19 06:05:32;;;;;;;7.80;1.65;;;;;;;13.11;100.00;100565.50;4896880;29;20046;-73
2023/09/19 06:07:59;;;;;;;10.45;2.15;;;;;;;13.11;100.00;100563.72;4954349;28;20516;-73
2023/09/19 06:10:28;;;;;;;7.25;2.17;;;;;;;13.14;100.00;100573.41;4930190;29;20446;-73
2023/09/19 06:12:57;;;;;;;6.30;1.67;;;;;;;13.14;100.00;100579.56;4901622;28;20059;-73
2023/09/19 06:15:26;;;;;;;10.18;1.90;;;;;;;13.16;100.00;100593.66;4937781;29;20051;-73
2023/09/19 06:17:55;;;;;;;6.55;1.77;;;;;;;13.17;100.00;100599.81;4914964;29;20052;-73
2023/09/19 06:20:25;;;;;;;10.18;2.28;;;;;;;13.21;100.00;100601.53;4944002;29;20051;-73
2023/09/19 06:22:53;;;;;;;14.15;2.13;;;;;;;13.25;100.00;100606.78;4903184;28;20047;-73
2023/09/19 06:25:21;;;;;;;8.90;3.00;;;;;;;13.27;100.00;100607.63;4929811;29;20047;-73
2023/09/19 06:27:55;;;;;;;11.05;2.33;;;;;;;13.31;100.00;100616.44;4906619;28;20051;-72
2023/09/19 06:30:24;;;;;;;5.10;1.98;;;;;;;13.36;100.00;100613.72;4930352;29;20047;-73
2023/09/19 06:32:56;;;;;;;9.18;2.10;;;;;;;13.37;100.00;100608.44;4936562;28;20047;-73
2023/09/19 06:35:26;;;;;;;6.13;1.77;;;;;;;13.37;100.00;100612.84;4932423;28;20046;-73
2023/09/19 06:37:53;;;;;;;10.05;2.75;;;;;;;13.39;100.00;100617.22;4897711;28;20425;-73
2023/09/19 06:40:21;;;;;;;9.55;2.30;;;;;;;13.42;100.00;100616.28;4929504;29;20059;-73
2023/09/19 06:42:52;;;;;;;7.75;1.67;;;;;;;13.43;100.00;100615.41;4941378;28;20700;-72
2023/09/19 06:45:21;;;;;;;9.90;2.30;;;;;;;13.45;100.00;100613.63;4937136;28;20055;-72
2023/09/19 06:47:50;;;;;;;5.45;1.90;;;;;;;13.50;100.00;100614.44;4941435;28;20051;-73
2023/09/19 06:50:22;;;;;;;10.90;2.55;;;;;;;13.53;100.00;100609.09;4917715;29;20494;-73
2023/09/19 06:52:54;;;;;;;8.98;2.28;;;;;;;13.56;100.00;100611.72;4895320;29;20054;-73
2023/09/19 06:55:27;;;;;;;17.63;2.10;;;;;;;13.59;100.00;100613.44;4931887;28;20058;-73
2023/09/19 06:57:55;;;;;;;4.10;1.38;;;;;;;13.61;100.00;100606.34;4927122;29;20050;-73
2023/09/19 07:00:23;;;;;;;6.55;1.90;;;;;;;13.62;100.00;100608.97;4928663;29;20051;-73
2023/09/19 07:03:13;;;;;;;7.45;1.70;;;;;;;13.67;100.00;100610.69;4941840;28;20055;-73
2023/09/19 07:05:42;;;;;;;12.35;2.50;;;;;;;13.71;100.00;100599.19;4927037;29;20498;-73
2023/09/19 07:08:12;;;;;;;8.00;2.35;;;;;;;13.73;100.00;100600.91;4877552;29;20047;-73
2023/09/19 07:10:41;;;;;;;5.97;2.10;;;;;;;13.77;100.00;100597.31;4912492;29;20078;-73
2023/09/19 07:13:10;;;;;;;10.35;2.45;;;;;;;13.80;100.00;100612.31;4911823;29;20050;-73
2023/09/19 07:15:41;;;;;;;12.68;2.58;;;;;;;13.84;100.00;100614.00;4919005;28;20043;-73
2023/09/19 07:18:10;;;;;;;7.82;1.85;;;;;;;13.88;100.00;100607.75;4960470;28;20066;-73
2023/09/19 07:20:38;;;;;;;7.38;2.05;;;;;;;13.92;100.00;100612.13;4941316;29;20043;-73
2023/09/19 07:23:06;;;;;;;12.07;2.10;;;;;;;13.99;100.00;100612.91;4878534;28;20043;-73
2023/09/19 07:25:35;;;;;;;4.75;1.77;;;;;;;14.04;100.00;100614.59;4945318;29;20498;-73
2023/09/19 07:28:03;;;;;;;10.10;2.40;;;;;;;14.12;100.00;100622.44;4932784;28;20043;-73
2023/09/19 07:30:30;;;;;;;9.07;2.13;;;;;;;14.16;100.00;100621.47;4930578;28;20057;-73
2023/09/19 07:32:58;;;;;;;10.68;2.17;;;;;;;14.21;100.00;100638.19;4903562;29;20081;-73
2023/09/19 07:35:25;;;;;;;9.88;2.50;;;;;;;14.28;100.00;100636.31;4934201;28;20054;-73
2023/09/19 07:37:53;;;;;;;12.57;2.55;;;;;;;14.31;100.00;100633.63;4915255;28;23345;-73
2023/09/19 07:40:20;;;;;;;7.13;1.80;;;;;;;14.37;100.00;100625.56;4888772;28;20062;-73
2023/09/19 07:42:50;;;;;;;8.43;2.03;;;;;;;14.41;100.00;100626.41;4932804;29;21453;-73
2023/09/19 07:45:18;;;;;;;5.28;1.80;;;;;;;14.46;100.00;100628.97;4924743;29;20130;-73
2023/09/19 07:47:50;;;;;;;7.97;2.63;;;;;;;14.50;100.00;100614.75;4927063;28;20054;-73
2023/09/19 07:50:19;;;;;;;9.07;1.90;;;;;;;14.56;100.00;100625.28;4951416;28;20047;-73
2023/09/19 07:52:48;;;;;;;8.48;2.30;;;;;;;14.60;100.00;100627.00;4925543;29;20043;-73
2023/09/19 07:55:17;;;;;;;13.23;3.20;;;;;;;14.67;100.00;100623.34;4870934;29;20044;-73
2023/09/19 07:57:44;;;;;;;7.70;1.98;;;;;;;14.70;100.00;100623.28;4927714;29;20501;-73
2023/09/19 08:00:12;;;;;;;10.60;2.00;;;;;;;14.76;100.00;100622.28;4915163;28;20573;-73
2023/09/19 08:02:41;;;;;;;6.65;1.70;;;;;;;14.81;100.00;100618.66;4928311;28;20058;-73
2023/09/19 08:05:10;;;;;;;13.80;2.65;;;;;;;14.83;100.00;100621.28;4916737;29;20051;-73
2023/09/19 08:07:39;;;;;;;8.43;2.20;;;;;;;14.86;100.00;100617.69;4920647;29;20055;-73
2023/09/19 08:10:13;;;;;;;6.43;1.95;;;;;;;14.88;100.00;100627.38;4921295;29;20490;-73
2023/09/19 08:12:46;;;;;;;10.80;2.55;;;;;;;14.86;100.00;100625.66;4889319;29;20048;-73
2023/09/19 08:15:16;;;;;;;7.05;2.85;;;;;;;14.90;100.00;100619.41;4929975;29;20069;-73
2023/09/19 08:17:43;;;;;;;8.38;2.28;;;;;;;14.93;100.00;100635.25;4907105;29;20056;-73
2023/09/19 08:20:18;;;;;;;10.40;2.08;;;;;;;14.96;100.00;100633.41;4935572;29;20070;-73
2023/09/19 08:22:54;;;;;;;8.77;2.45;;;;;;;15.08;100.00;100627.00;4925130;29;20039;-73
2023/09/19 08:25:23;;;;;;;10.43;2.85;;;;;;;15.18;100.00;100639.22;4873412;29;20078;-73
2023/09/19 08:27:50;;;;;;;10.75;2.55;;;;;;;15.34;100.00;100634.47;4872099;29;20062;-73
2023/09/19 08:30:23;;;;;;;13.20;2.40;;;;;;;15.49;100.00;100638.59;4939316;28;20091;-73
2023/09/19 08:32:59;;;;;;;11.02;3.30;;;;;;;15.65;100.00;100633.88;4887279;29;20051;-73
2023/09/19 08:35:27;;;;;;;9.50;2.40;;;;;;;15.77;100.00;100638.06;4935592;29;20430;-73
2023/09/19 08:37:55;;;;;;;7.00;2.38;;;;;;;15.91;100.00;100640.41;4933139;29;20051;-73
2023/09/19 08:40:23;;;;;;;9.75;2.05;;;;;;;16.06;100.00;100641.84;4933792;29;20055;-73
2023/09/19 08:42:53;;;;;;;8.32;2.30;;;;;;;16.20;100.00;100638.88;4861346;29;22827;-73
2023/09/19 08:45:27;;;;;;;7.18;2.05;;;;;;;16.25;100.00;100629.88;4918612;29;20165;-73
2023/09/19 08:48:20;;;;;;;11.73;2.53;;;;;;;16.28;100.00;100643.09;4896969;29;20048;-73
2023/09/19 08:51:06;;;;;;;7.03;2.42;;;;;;;16.27;100.00;100641.34;4912910;29;20050;-73
2023/09/19 08:54:04;;;;;;;9.88;2.28;;;;;;;16.28;100.00;100642.25;4928858;29;20392;-73
2023/09/19 08:56:33;;;;;;;6.65;1.90;;;;;;;16.36;100.00;100629.63;4889785;29;20534;-73
2023/09/19 08:59:12;;;;;;;7.20;1.83;;;;;;;16.40;100.00;100636.59;4865211;29;20047;-74
2023/09/19 09:01:41;;;;;;;6.47;1.67;;;;;;;16.44;100.00;100640.06;4914524;29;20637;-74
2023/09/19 09:04:12;;;;;;;9.20;1.95;;;;;;;16.43;100.00;100631.22;4941072;29;20067;-74
2023/09/19 09:06:43;;;;;;;11.00;2.78;;;;;;;16.46;100.00;100633.78;4922654;29;20465;-74
2023/09/19 09:09:10;;;;;;;6.43;2.00;;;;;;;16.46;100.00;100638.25;4928732;29;20043;-74
2023/09/19 09:11:39;;;;;;;7.80;2.42;;;;;;;16.40;100.00;100646.38;4916567;29;20059;-74
2023/09/19 09:14:07;;;;;;;6.80;2.35;;;;;;;16.41;100.00;100637.47;4868368;29;20051;-73
2023/09/19 09:16:35;;;;;;;8.43;1.90;;;;;;;16.30;100.00;100645.72;4886357;29;20061;-74
2023/09/19 09:19:02;;;;;;;7.15;2.10;;;;;;;16.22;100.00;100640.59;4937154;29;20048;-73
2023/09/19 09:21:35;;;;;;;7.72;2.17;;;;;;;16.21;100.00;100649.47;4902126;29;20051;-74
2023/09/19 09:24:54;;;;;;;8.80;2.05;;;;;;;16.20;100.00;100644.19;4899187;29;20391;-74
2023/09/19 09:27:23;;;;;;;9.43;2.40;;;;;;;16.16;100.00;100635.41;4839817;29;20884;-74
2023/09/19 09:29:54;;;;;;;8.47;1.83;;;;;;;16.17;100.00;100637.16;4811489;29;20088;-74
2023/09/19 09:32:28;;;;;;;6.57;2.00;;;;;;;16.22;100.00;100643.25;4878612;29;20446;-74
2023/09/19 09:35:00;;;;;;;8.77;2.33;;;;;;;16.26;100.00;100638.75;4916985;29;20048;-74
2023/09/19 09:37:30;;;;;;;12.23;2.15;;;;;;;16.30;100.00;100643.06;4929836;29;20400;-74
2023/09/19 09:40:18;;;;;;;12.93;2.90;;;;;;;16.36;100.00;100640.25;4960034;28;20052;-74
2023/09/19 09:42:46;;;;;;;12.00;3.17;;;;;;;16.42;100.00;100649.88;4958458;28;20054;-74
2023/09/19 09:45:17;;;;;;;9.35;2.67;;;;;;;16.54;100.00;100637.16;4847990;29;20059;-73
2023/09/19 09:47:55;;;;;;;12.13;3.33;;;;;;;16.65;100.00;100630.69;4926072;29;20054;-73
2023/09/19 09:53:29;;;;;;;9.07;2.78;;;;;;;16.84;100.00;100628.44;4911247;29;20723;-75
2023/09/19 09:56:11;;;;;;;13.25;3.75;;;;;;;16.92;100.00;100626.47;4941937;29;20056;-74
2023/09/19 09:58:48;;;;;;;10.18;2.55;;;;;;;16.85;100.00;100635.53;4892369;29;20717;-74
2023/09/19 10:01:16;;;;;;;9.73;3.22;;;;;;;16.79;100.00;100630.34;4841661;29;20062;-73
2023/09/19 10:03:47;;;;;;;16.23;3.42;;;;;;;16.79;100.00;100628.56;4900759;29;20055;-73
2023/09/19 10:06:26;;;;;;;7.65;2.75;;;;;;;16.81;100.00;100623.19;4922270;29;20059;-73
2023/09/19 10:09:16;;;;;;;9.00;2.80;;;;;;;16.90;100.00;100622.97;4890615;29;20044;-73
2023/09/19 10:11:56;;;;;;;13.23;2.50;;;;;;;17.00;100.00;100619.16;4900505;29;20059;-73
2023/09/19 10:14:31;;;;;;;10.75;2.50;;;;;;;17.12;100.00;100613.47;4915546;29;20043;-73
2023/09/19 10:17:04;;;;;;;8.55;2.60;;;;;;;17.27;100.00;100614.84;4877478;29;20058;-73
2023/09/19 10:19:57;;;;;;;10.23;2.33;;;;;;;17.40;100.00;100604.72;4910229;29;20508;-73
2023/09/19 10:22:26;;;;;;;12.75;2.88;;;;;;;17.47;100.00;100608.09;4899270;29;20055;-73
2023/09/19 10:24:57;;;;;;;17.30;3.35;;;;;;;17.51;100.00;100612.41;4898801;29;20401;-73
2023/09/19 10:27:36;;;;;;;10.20;2.22;;;;;;;17.54;100.00;100599.88;4916122;29;20048;-73
2023/09/19 10:30:08;;;;;;;9.80;2.47;;;;;;;17.60;100.00;100596.16;4910630;29;20075;-73
2023/09/19 10:32:39;;;;;;;16.15;2.90;;;;;;;17.64;100.00;100595.13;4882452;29;20051;-73
2023/09/19 10:35:08;;;;;;;8.82;2.65;;;;;;;17.76;100.00;100601.00;4917781;29;20060;-73
2023/09/19 10:37:37;;;;;;;7.88;2.67;;;;;;;17.83;100.00;100595.44;4882975;29;20051;-73
2023/09/19 10:40:08;;;;;;;19.17;3.88;;;;;;;17.90;100.00;100589.03;4899437;29;20055;-73
2023/09/19 10:42:41;;;;;;;8.20;3.05;;;;;;;17.90;100.00;100591.72;4917546;29;20055;-73
2023/09/19 10:45:13;;;;;;;15.20;2.65;;;;;;;17.97;100.00;100578.19;4909809;29;20086;-73
2023/09/19 10:47:40;;;;;;;9.48;2.92;;;;;;;17.97;100.00;100581.72;4880286;29;20074;-73
2023/09/19 10:50:12;;;;;;;9.25;2.80;;;;;;;17.92;100.00;100576.53;4958361;28;20047;-74
2023/09/19 10:52:42;;;;;;;11.02;2.55;;;;;;;17.88;100.00;100574.00;4903447;29;20055;-74
2023/09/19 10:55:15;;;;;;;10.70;2.53;;;;;;;17.88;100.00;100582.88;4941217;28;20469;-74
2023/09/19 10:57:46;;;;;;;9.98;2.53;;;;;;;17.89;100.00;100575.75;4939972;28;20517;-74
2023/09/19 11:00:23;;;;;;;9.73;2.80;;;;;;;17.97;100.00;100579.03;4915646;29;20051;-73
2023/09/19 11:03:09;;;;;;;9.23;2.83;;;;;;;18.08;100.00;100578.72;4906713;28;20047;-74
2023/09/19 11:05:41;;;;;;;15.00;2.85;;;;;;;18.10;100.00;100575.06;4960655;28;20073;-73
2023/09/19 11:08:08;;;;;;;10.23;2.13;;;;;;;18.09;100.00;100572.44;4923214;28;20043;-73
2023/09/19 11:10:50;;;;;;;8.98;2.58;;;;;;;18.08;100.00;100578.72;4922108;29;20529;-74
2023/09/19 11:13:30;;;;;;;11.55;2.25;;;;;;;18.06;100.00;100567.22;4941975;28;20055;-74
2023/09/19 11:15:58;;;;;;;12.93;2.88;;;;;;;18.05;100.00;100563.69;4941921;28;20055;-74
2023/09/19 11:18:41;;;;;;;10.18;2.58;;;;;;;18.16;100.00;100547.31;4883421;28;20043;-74
2023/09/19 11:21:29;;;;;;;14.50;2.88;;;;;;;18.34;100.00;100563.66;4940300;28;20419;-74
2023/09/19 11:24:12;;;;;;;10.50;2.45;;;;;;;18.35;100.00;100557.38;4921816;28;20062;-74
2023/09/19 11:26:47;;;;;;;6.78;1.95;;;;;;;18.23;100.00;100556.00;4927938;28;20059;-74
2023/09/19 11:29:30;;;;;;;10.02;2.70;;;;;;;18.11;100.00;100549.28;4931436;28;20502;-74
2023/09/19 11:32:01;;;;;;;8.93;2.50;;;;;;;18.11;100.00;100562.63;4942664;28;20520;-73
2023/09/19 11:34:39;;;;;;;15.80;2.90;;;;;;;18.13;100.00;100555.44;4865892;28;20520;-73
2023/09/19 11:37:11;;;;;;;6.78;2.55;;;;;;;18.17;100.00;100557.09;4961103;28;20057;-74